createdAt,value
2022-08-05T00:01:20.740Z,99.99
2022-08-05T00:02:14.976Z,99.99
2022-08-05T00:04:09.203Z,99.99
2022-08-05T00:05:09.192Z,99.99
2022-08-05T00:07:58.709Z,99.99
2022-08-05T00:08:03.509Z,99.99
2022-08-05T00:09:57.347Z,99.99
2022-08-05T00:10:57.336Z,99.99
2022-08-05T00:12:56.636Z,99.99
2022-08-05T00:13:53.166Z,99.99
2022-08-05T00:15:57.587Z,99.99
2022-08-05T00:16:52.821Z,99.99
2022-08-05T00:18:39.380Z,99.99
2022-08-05T00:19:44.068Z,99.99
2022-08-05T00:21:35.887Z,99.99
2022-08-05T00:22:33.519Z,99.99
2022-08-05T00:24:30.738Z,99.99
2022-08-05T00:25:27.604Z,99.99
2022-08-05T00:27:21.631Z,99.99
2022-08-05T00:28:29.663Z,99.99
2022-08-05T00:30:15.427Z,99.99
2022-08-05T00:31:15.420Z,99.99
2022-08-05T00:33:15.698Z,99.99
2022-08-05T00:34:56.488Z,99.99
2022-08-05T00:36:16.400Z,99.99
2022-08-05T00:37:11.496Z,99.99
2022-08-05T00:38:59.325Z,99.99
2022-08-05T00:39:58.682Z,99.99
2022-08-05T00:41:55.494Z,99.99
2022-08-05T00:42:51.666Z,99.99
2022-08-05T00:44:45.764Z,99.99
2022-08-05T00:45:45.748Z,99.99
2022-08-05T00:47:56.818Z,99.99
2022-08-05T00:48:51.530Z,99.99
2022-08-05T00:50:34.080Z,99.99
2022-08-05T00:51:50.023Z,99.99
2022-08-05T00:54:00.467Z,99.99
2022-08-05T00:54:30.196Z,99.99
2022-08-05T00:56:22.730Z,99.99
2022-08-05T00:57:22.493Z,99.99
2022-08-05T00:59:16.417Z,99.99
2022-08-05T01:00:16.914Z,99.99
2022-08-05T01:02:10.497Z,99.99
2022-08-05T01:03:10.492Z,99.99
2022-08-05T01:05:10.190Z,99.99
2022-08-05T01:06:05.714Z,99.99
2022-08-05T01:08:40.453Z,99.99
2022-08-05T01:08:59.615Z,99.99
2022-08-05T01:10:53.854Z,99.99
2022-08-05T01:11:53.844Z,99.99
2022-08-05T01:13:58.511Z,99.99
2022-08-05T01:14:47.915Z,99.99
2022-08-05T01:16:42.478Z,99.99
2022-08-05T01:17:44.104Z,99.99
2022-08-05T01:19:56.489Z,99.99
2022-08-05T01:20:36.110Z,99.99
2022-08-05T01:22:30.152Z,99.99
2022-08-05T01:23:34.715Z,99.99
2022-08-05T01:25:24.282Z,99.99
2022-08-05T01:26:26.350Z,99.99
2022-08-05T01:28:18.316Z,99.99
2022-08-05T01:29:18.298Z,99.99
2022-08-05T01:31:12.030Z,99.99
2022-08-05T01:32:12.392Z,99.99
2022-08-05T01:34:06.097Z,99.99
2022-08-05T01:35:10.685Z,99.99
2022-08-05T01:37:00.513Z,99.99
2022-08-05T01:38:00.220Z,99.99
2022-08-05T01:39:54.339Z,99.99
2022-08-05T01:40:54.240Z,99.99
2022-08-05T01:42:48.057Z,99.99
2022-08-05T01:43:48.894Z,99.99
2022-08-05T01:45:43.079Z,99.99
2022-08-05T01:46:46.600Z,99.99
2022-08-05T01:48:36.286Z,99.99
2022-08-05T01:49:59.991Z,99.99
2022-08-05T01:51:30.480Z,99.99
2022-08-05T01:52:30.460Z,99.99
2022-08-05T01:54:27.161Z,99.99
2022-08-05T01:55:24.546Z,99.99
2022-08-05T01:58:11.542Z,99.99
2022-08-05T01:58:18.650Z,99.99
2022-08-05T02:00:12.747Z,99.99
2022-08-05T02:01:12.739Z,99.99
2022-08-05T02:03:07.895Z,99.99
2022-08-05T02:04:07.887Z,99.99
2022-08-05T02:06:03.530Z,99.99
2022-08-05T02:07:03.415Z,99.99
2022-08-05T02:08:58.369Z,99.99
2022-08-05T02:09:56.088Z,99.99
2022-08-05T02:11:52.241Z,99.99
2022-08-05T02:12:50.992Z,99.99
2022-08-05T02:14:47.114Z,99.99
2022-08-05T02:15:46.301Z,99.99
2022-08-05T02:18:31.604Z,99.99
2022-08-05T02:18:40.597Z,99.99
2022-08-05T02:20:38.924Z,99.99
2022-08-05T02:21:40.316Z,99.99
2022-08-05T02:23:28.612Z,99.99
2022-08-05T02:24:28.602Z,99.99
2022-08-05T02:26:22.689Z,99.99
2022-08-05T02:27:29.903Z,99.99
2022-08-05T02:29:21.358Z,99.99
2022-08-05T02:30:16.741Z,99.99
2022-08-05T02:32:11.915Z,99.99
2022-08-05T02:33:11.902Z,99.99
2022-08-05T02:35:13.303Z,99.99
2022-08-05T02:36:06.024Z,99.99
2022-08-05T02:38:00.405Z,99.99
2022-08-05T02:39:00.185Z,99.99
2022-08-05T02:40:54.275Z,99.99
2022-08-05T02:41:57.882Z,99.99
2022-08-05T02:44:06.615Z,99.99
2022-08-05T02:44:48.380Z,99.99
2022-08-05T02:46:53.484Z,99.99
2022-08-05T02:48:07.458Z,99.99
2022-08-05T02:49:40.391Z,99.99
2022-08-05T02:50:37.595Z,99.99
2022-08-05T02:52:31.642Z,99.99
2022-08-05T02:53:35.886Z,99.99
2022-08-05T02:55:54.420Z,99.99
2022-08-05T02:56:25.735Z,99.99
2022-08-05T02:58:20.652Z,99.99
2022-08-05T02:59:19.823Z,99.99
2022-08-05T03:01:13.933Z,99.99
2022-08-05T03:02:13.893Z,99.99
2022-08-05T03:04:11.994Z,99.99
2022-08-05T03:05:07.732Z,99.99
2022-08-05T03:07:01.814Z,99.99
2022-08-05T03:08:08.679Z,99.99
2022-08-05T03:09:55.888Z,99.99
2022-08-05T03:11:41.156Z,99.99
2022-08-05T03:12:51.984Z,99.99
2022-08-05T03:14:02.864Z,99.99
2022-08-05T03:15:45.184Z,99.99
2022-08-05T03:16:45.178Z,99.99
2022-08-05T03:18:39.276Z,99.99
2022-08-05T03:19:39.258Z,99.99
2022-08-05T03:21:33.346Z,99.99
2022-08-05T03:22:33.339Z,99.99
2022-08-05T03:24:29.915Z,99.99
2022-08-05T03:25:32.786Z,99.99
2022-08-05T03:27:21.996Z,99.99
2022-08-05T03:28:21.526Z,99.99
2022-08-05T03:30:15.525Z,99.99
2022-08-05T03:31:18.273Z,99.99
2022-08-05T03:33:09.656Z,99.99
2022-08-05T03:34:09.643Z,99.99
2022-08-05T03:36:03.753Z,99.99
2022-08-05T03:37:03.747Z,99.99
2022-08-05T03:38:58.086Z,99.99
2022-08-05T03:40:00.917Z,99.99
2022-08-05T03:41:52.668Z,99.99
2022-08-05T03:42:52.878Z,99.99
2022-08-05T03:44:46.251Z,99.99
2022-08-05T03:45:57.596Z,99.99
2022-08-05T03:47:41.431Z,99.99
2022-08-05T03:48:40.303Z,99.99
2022-08-05T03:50:34.390Z,99.99
2022-08-05T03:52:48.275Z,99.99
2022-08-05T03:55:52.077Z,99.99
2022-08-05T03:55:53.478Z,99.99
2022-08-05T03:56:27.935Z,99.99
2022-08-05T03:57:42.330Z,99.99
2022-08-05T03:59:20.339Z,99.99
2022-08-05T04:00:17.710Z,99.99
2022-08-05T04:02:17.324Z,99.99
2022-08-05T04:03:14.943Z,99.99
2022-08-05T04:05:05.999Z,99.99
2022-08-05T04:06:05.994Z,99.99
2022-08-05T04:08:00.105Z,99.99
2022-08-05T04:09:00.084Z,99.99
2022-08-05T04:10:55.242Z,99.99
2022-08-05T04:11:56.394Z,99.99
2022-08-05T04:13:53.438Z,99.99
2022-08-05T04:14:49.330Z,99.99
2022-08-05T04:16:43.400Z,99.99
2022-08-05T04:17:56.659Z,99.99
2022-08-05T04:19:38.588Z,99.99
2022-08-05T04:20:38.579Z,99.99
2022-08-05T04:22:33.331Z,99.99
2022-08-05T04:23:57.389Z,99.99
2022-08-05T04:25:57.057Z,99.99
2022-08-05T04:26:32.263Z,99.99
2022-08-05T04:28:30.667Z,99.99
2022-08-05T04:29:22.580Z,99.99
2022-08-05T04:31:16.733Z,99.99
2022-08-05T04:32:29.659Z,99.99
2022-08-05T04:34:31.357Z,99.99
2022-08-05T04:35:17.712Z,99.99
2022-08-05T04:37:04.902Z,99.99
2022-08-05T04:38:06.458Z,99.99
2022-08-05T04:39:59.069Z,99.99
2022-08-05T04:40:59.051Z,99.99
2022-08-05T04:42:53.368Z,99.99
2022-08-05T04:43:53.360Z,99.99
2022-08-05T04:45:48.846Z,99.99
2022-08-05T04:46:47.404Z,99.99
2022-08-05T04:48:41.483Z,99.99
2022-08-05T04:50:01.290Z,99.99
2022-08-05T04:51:35.583Z,99.99
2022-08-05T04:52:35.575Z,99.99
2022-08-05T04:54:29.304Z,99.99
2022-08-05T04:56:14.702Z,99.99
2022-08-05T04:57:23.558Z,99.99
2022-08-05T04:58:23.340Z,99.99
2022-08-05T05:00:17.425Z,99.99
2022-08-05T05:01:59.664Z,99.99
2022-08-05T05:03:11.565Z,99.99
2022-08-05T05:04:11.504Z,99.99
2022-08-05T05:06:39.072Z,99.99
2022-08-05T05:07:09.527Z,99.99
2022-08-05T05:08:59.758Z,99.99
2022-08-05T05:09:59.737Z,99.99
2022-08-05T05:11:56.859Z,99.99
2022-08-05T05:12:53.820Z,99.99
2022-08-05T05:14:49.567Z,99.99
2022-08-05T05:15:57.268Z,99.99
2022-08-05T05:17:56.645Z,99.99
2022-08-05T05:18:56.968Z,99.99
2022-08-05T05:20:36.365Z,99.99
2022-08-05T05:21:36.347Z,99.99
2022-08-05T05:24:02.205Z,99.99
2022-08-05T05:24:57.214Z,99.99
2022-08-05T05:26:28.075Z,99.99
2022-08-05T05:27:24.747Z,99.99
2022-08-05T05:29:18.561Z,99.99
2022-08-05T05:30:31.341Z,99.99
2022-08-05T05:32:15.718Z,99.99
2022-08-05T05:33:17.177Z,99.99
2022-08-05T05:35:06.736Z,99.99
2022-08-05T05:36:06.721Z,99.99
2022-08-05T05:38:02.101Z,99.99
2022-08-05T05:39:00.841Z,99.99
2022-08-05T05:40:54.974Z,99.99
2022-08-05T05:41:54.891Z,99.99
2022-08-05T05:43:57.957Z,99.99
2022-08-05T05:44:49.943Z,99.99
2022-08-05T05:46:44.150Z,99.99
2022-08-05T05:48:05.707Z,99.99
2022-08-05T05:49:38.283Z,99.99
2022-08-05T05:50:44.102Z,99.99
2022-08-05T05:52:38.035Z,99.99
2022-08-05T05:53:32.334Z,99.99
2022-08-05T05:55:52.030Z,99.99
2022-08-05T05:56:31.880Z,99.99
2022-08-05T05:58:20.533Z,99.99
2022-08-05T05:59:20.526Z,99.99
2022-08-05T06:01:15.348Z,99.99
2022-08-05T06:02:15.038Z,99.99
2022-08-05T06:04:11.725Z,99.99
2022-08-05T06:05:10.142Z,99.99
2022-08-05T06:07:03.212Z,99.99
2022-08-05T06:08:03.848Z,99.99
2022-08-05T06:10:00.535Z,99.99
2022-08-05T06:10:58.274Z,99.99
2022-08-05T06:12:52.364Z,99.99
2022-08-05T06:13:54.099Z,99.99
2022-08-05T06:16:30.385Z,99.99
2022-08-05T06:16:46.450Z,99.99
2022-08-05T06:18:40.547Z,99.99
2022-08-05T06:19:40.541Z,99.99
2022-08-05T06:21:36.462Z,99.99
2022-08-05T06:22:34.653Z,99.99
2022-08-05T06:24:28.795Z,99.99
2022-08-05T06:26:00.115Z,99.99
2022-08-05T06:28:11.032Z,99.99
2022-08-05T06:28:23.282Z,99.99
2022-08-05T06:30:20.153Z,99.99
2022-08-05T06:31:18.039Z,99.99
2022-08-05T06:33:10.989Z,99.99
2022-08-05T06:34:10.806Z,99.99
2022-08-05T06:36:10.114Z,99.99
2022-08-05T06:37:04.539Z,99.99
2022-08-05T06:38:58.666Z,99.99
2022-08-05T06:39:58.621Z,99.99
2022-08-05T06:41:53.807Z,99.99
2022-08-05T06:42:53.791Z,99.99
2022-08-05T06:44:49.170Z,99.99
2022-08-05T06:46:03.762Z,99.99
2022-08-05T06:48:36.531Z,99.99
2022-08-05T06:48:54.725Z,99.99
2022-08-05T06:50:36.082Z,99.99
2022-08-05T06:51:36.076Z,99.99
2022-08-05T06:53:31.177Z,99.99
2022-08-05T06:54:31.162Z,99.99
2022-08-05T06:56:26.666Z,99.99
2022-08-05T06:57:57.900Z,99.99
2022-08-05T06:59:19.416Z,99.99
2022-08-05T07:00:22.471Z,99.99
2022-08-05T07:02:13.576Z,99.99
2022-08-05T07:03:13.564Z,99.99
2022-08-05T07:05:14.388Z,99.99
2022-08-05T07:06:14.157Z,99.99
2022-08-05T07:08:01.803Z,99.99
2022-08-05T07:09:04.199Z,99.99
2022-08-05T07:10:55.875Z,99.99
2022-08-05T07:11:55.874Z,99.99
2022-08-05T07:13:59.615Z,99.99
2022-08-05T07:14:49.965Z,99.99
2022-08-05T07:18:00.303Z,99.99
2022-08-05T07:18:08.591Z,99.99
2022-08-05T07:20:16.876Z,99.99
2022-08-05T07:20:38.966Z,99.99
2022-08-05T07:22:32.356Z,99.99
2022-08-05T07:23:32.340Z,99.99
2022-08-05T07:25:55.017Z,99.99
2022-08-05T07:26:26.502Z,99.99
2022-08-05T07:28:20.608Z,99.99
2022-08-05T07:29:20.593Z,99.99
2022-08-05T07:31:14.714Z,99.99
2022-08-05T07:32:14.801Z,99.99
2022-08-05T07:34:08.742Z,99.99
2022-08-05T07:35:55.582Z,99.99
2022-08-05T07:37:02.931Z,99.99
2022-08-05T07:38:02.915Z,99.99
2022-08-05T07:40:26.258Z,99.99
2022-08-05T07:41:00.303Z,99.99
2022-08-05T07:42:51.054Z,99.99
2022-08-05T07:43:51.040Z,99.99
2022-08-05T07:45:57.555Z,99.99
2022-08-05T07:46:45.984Z,99.99
2022-08-05T07:49:02.386Z,99.99
2022-08-05T07:49:43.542Z,99.99
2022-08-05T07:51:40.297Z,99.99
2022-08-05T07:52:33.262Z,99.99
2022-08-05T07:54:30.843Z,99.99
2022-08-05T07:55:44.484Z,99.99
2022-08-05T07:57:52.316Z,99.99
2022-08-05T07:58:54.786Z,99.99
2022-08-05T08:00:16.427Z,99.99
2022-08-05T08:01:16.471Z,99.99
2022-08-05T08:03:14.744Z,99.99
2022-08-05T08:04:10.543Z,99.99
2022-08-05T08:06:05.678Z,99.99
2022-08-05T08:07:07.214Z,99.99
2022-08-05T08:08:59.743Z,99.99
2022-08-05T08:09:59.724Z,99.99
2022-08-05T08:12:00.102Z,99.99
2022-08-05T08:12:53.838Z,99.99
2022-08-05T08:14:48.033Z,99.99
2022-08-05T08:16:35.081Z,99.99
2022-08-05T08:17:46.235Z,99.99
2022-08-05T08:18:42.114Z,99.99
2022-08-05T08:20:43.691Z,99.99
2022-08-05T08:21:36.215Z,99.99
2022-08-05T08:24:02.265Z,99.99
2022-08-05T08:24:51.471Z,99.99
2022-08-05T08:26:29.582Z,99.99
2022-08-05T08:27:35.678Z,99.99
2022-08-05T08:30:03.268Z,99.99
2022-08-05T08:30:32.237Z,99.99
2022-08-05T08:32:13.563Z,99.99
2022-08-05T08:33:14.503Z,99.99
2022-08-05T08:35:07.777Z,99.99
2022-08-05T08:38:01.849Z,99.99
2022-08-05T08:39:01.914Z,99.99
2022-08-05T08:40:55.909Z,99.99
2022-08-05T08:41:59.843Z,99.99
2022-08-05T08:45:18.223Z,99.99
2022-08-05T08:45:23.263Z,99.99
2022-08-05T08:46:43.985Z,99.99
2022-08-05T08:48:05.509Z,99.99
2022-08-05T08:50:07.820Z,99.99
2022-08-05T08:51:03.333Z,99.99
2022-08-05T08:52:32.102Z,99.99
2022-08-05T08:53:32.087Z,99.99
2022-08-05T08:55:32.017Z,99.99
2022-08-05T08:56:26.972Z,99.99
2022-08-05T08:58:20.416Z,99.99
2022-08-05T08:59:20.943Z,99.99
2022-08-05T09:01:17.011Z,99.99
2022-08-05T09:02:18.059Z,99.99
2022-08-05T09:04:10.599Z,99.99
2022-08-05T09:05:17.301Z,99.99
2022-08-05T09:07:04.727Z,99.99
2022-08-05T09:08:04.721Z,99.99
2022-08-05T09:09:59.238Z,99.99
2022-08-05T09:10:59.226Z,99.99
2022-08-05T09:12:53.366Z,99.99
2022-08-05T09:14:09.664Z,99.99
2022-08-05T09:15:47.441Z,99.99
2022-08-05T09:16:48.947Z,99.99
2022-08-05T09:18:43.864Z,99.99
2022-08-05T09:20:01.375Z,99.99
2022-08-05T09:22:22.172Z,99.99
2022-08-05T09:22:36.848Z,99.99
2022-08-05T09:24:30.763Z,99.99
2022-08-05T09:26:01.958Z,99.99
2022-08-05T09:28:05.095Z,99.99
2022-08-05T09:28:32.296Z,99.99
2022-08-05T09:30:23.238Z,99.99
2022-08-05T09:31:43.353Z,99.99
2022-08-05T09:33:15.250Z,99.99
2022-08-05T09:34:13.988Z,99.99
2022-08-05T09:36:11.872Z,99.99
2022-08-05T09:37:15.176Z,99.99
2022-08-05T09:39:02.372Z,99.99
2022-08-05T09:40:02.303Z,99.99
2022-08-05T09:41:56.464Z,99.99
2022-08-05T09:42:56.253Z,99.99
2022-08-05T09:44:50.669Z,99.99
2022-08-05T09:46:07.397Z,99.99
2022-08-05T09:47:55.048Z,99.99
2022-08-05T09:48:55.475Z,99.99
2022-08-05T09:50:44.024Z,99.99
2022-08-05T09:51:39.917Z,99.99
2022-08-05T09:53:53.461Z,99.99
2022-08-05T09:54:33.704Z,99.99
2022-08-05T09:56:27.791Z,99.99
2022-08-05T09:57:27.787Z,99.99
2022-08-05T09:59:21.890Z,99.99
2022-08-05T10:00:21.875Z,99.99
2022-08-05T10:02:17.132Z,99.99
2022-08-05T10:03:16.968Z,99.99
2022-08-05T10:05:11.195Z,99.99
2022-08-05T10:06:14.667Z,99.99
2022-08-05T10:08:36.136Z,99.99
2022-08-05T10:09:05.251Z,99.99
2022-08-05T10:10:59.431Z,99.99
2022-08-05T10:11:59.427Z,99.99
2022-08-05T10:13:54.666Z,99.99
2022-08-05T10:14:54.315Z,99.99
2022-08-05T10:16:53.123Z,99.99
2022-08-05T10:17:47.586Z,99.99
2022-08-05T10:20:03.903Z,99.99
2022-08-05T10:20:41.682Z,99.99
2022-08-05T10:22:37.831Z,99.99
2022-08-05T10:24:00.074Z,99.99
2022-08-05T10:25:31.067Z,99.99
2022-08-05T10:26:31.602Z,99.99
2022-08-05T10:28:30.404Z,99.99
2022-08-05T10:30:41.046Z,99.99
2022-08-05T10:32:53.219Z,99.99
2022-08-05T10:32:54.287Z,99.99
2022-08-05T10:34:14.438Z,99.99
2022-08-05T10:35:14.422Z,99.99
2022-08-05T10:37:08.133Z,99.99
2022-08-05T10:38:08.365Z,99.99
2022-08-05T10:40:17.379Z,99.99
2022-08-05T10:41:02.273Z,99.99
2022-08-05T10:42:56.270Z,99.99
2022-08-05T10:43:56.262Z,99.99
2022-08-05T10:45:50.449Z,99.99
2022-08-05T10:46:51.051Z,99.99
2022-08-05T10:48:58.086Z,99.99
2022-08-05T10:49:49.144Z,99.99
2022-08-05T10:51:40.239Z,99.99
2022-08-05T10:52:38.679Z,99.99
2022-08-05T10:54:34.954Z,99.99
2022-08-05T10:55:32.773Z,99.99
2022-08-05T10:57:26.774Z,99.99
2022-08-05T10:58:47.690Z,99.99
2022-08-05T11:00:21.614Z,99.99
2022-08-05T11:01:28.337Z,99.99
2022-08-05T11:03:22.963Z,99.99
2022-08-05T11:04:15.853Z,99.99
2022-08-05T11:06:16.184Z,99.99
2022-08-05T11:07:09.982Z,99.99
2022-08-05T11:09:04.071Z,99.99
2022-08-05T11:10:09.947Z,99.99
2022-08-05T11:11:58.138Z,99.99
2022-08-05T11:12:58.122Z,99.99
2022-08-05T11:15:01.259Z,99.99
2022-08-05T11:16:00.277Z,99.99
2022-08-05T11:17:59.101Z,99.99
2022-08-05T11:18:47.324Z,99.99
2022-08-05T11:20:41.561Z,99.99
2022-08-05T11:21:49.345Z,99.99
2022-08-05T11:24:02.492Z,99.99
2022-08-05T11:24:35.477Z,99.99
2022-08-05T11:26:32.837Z,99.99
2022-08-05T11:27:29.558Z,99.99
2022-08-05T11:29:23.645Z,99.99
2022-08-05T11:30:23.637Z,99.99
2022-08-05T11:32:17.842Z,99.99
2022-08-05T11:33:21.209Z,99.99
2022-08-05T11:35:11.945Z,99.99
2022-08-05T11:36:11.928Z,99.99
2022-08-05T11:38:37.114Z,99.99
2022-08-05T11:39:06.082Z,99.99
2022-08-05T11:41:12.818Z,99.99
2022-08-05T11:42:04.169Z,99.99
2022-08-05T11:44:06.365Z,99.99
2022-08-05T11:44:54.448Z,99.99
2022-08-05T11:47:09.322Z,99.99
2022-08-05T11:47:50.521Z,99.99
2022-08-05T11:49:43.466Z,99.99
2022-08-05T11:50:43.447Z,99.99
2022-08-05T11:52:37.537Z,99.99
2022-08-05T11:53:40.875Z,99.99
2022-08-05T11:55:36.662Z,99.99
2022-08-05T11:56:40.985Z,99.99
2022-08-05T11:58:25.665Z,99.99
2022-08-05T11:59:25.659Z,99.99
2022-08-05T12:01:19.766Z,99.99
2022-08-05T12:02:30.637Z,99.99
2022-08-05T12:04:13.870Z,99.99
2022-08-05T12:05:18.500Z,99.99
2022-08-05T12:07:08.130Z,99.99
2022-08-05T12:08:11.571Z,99.99
2022-08-05T12:10:09.000Z,99.99
2022-08-05T12:11:05.468Z,99.99
2022-08-05T12:12:59.775Z,99.99
2022-08-05T12:13:58.547Z,99.99
2022-08-05T12:15:50.468Z,99.99
2022-08-05T12:16:50.431Z,99.99
2022-08-05T12:18:52.338Z,99.99
2022-08-05T12:20:27.241Z,99.99
2022-08-05T12:21:38.949Z,99.99
2022-08-05T12:22:38.573Z,99.99
2022-08-05T12:24:32.675Z,99.99
2022-08-05T12:25:32.659Z,99.99
2022-08-05T12:27:26.874Z,99.99
2022-08-05T12:28:26.780Z,99.99
2022-08-05T12:30:21.519Z,99.99
2022-08-05T12:31:23.738Z,99.99
2022-08-05T12:33:27.622Z,99.99
2022-08-05T12:34:20.386Z,99.99
2022-08-05T12:36:10.067Z,99.79
2022-08-05T12:37:10.027Z,99.99
2022-08-05T12:39:05.561Z,99.99
2022-08-05T12:40:10.667Z,98.83
2022-08-05T12:41:58.368Z,99.99
2022-08-05T12:42:58.355Z,99.99
2022-08-05T12:44:52.602Z,99.07
2022-08-05T12:45:52.581Z,98.49
2022-08-05T12:48:17.168Z,96.80
2022-08-05T12:48:46.375Z,96.99
2022-08-05T12:50:40.528Z,97.47
2022-08-05T12:52:12.830Z,96.41
2022-08-05T12:53:37.094Z,96.02
2022-08-05T12:54:34.609Z,95.54
2022-08-05T12:56:35.321Z,96.17
2022-08-05T12:57:28.719Z,95.78
2022-08-05T12:59:27.546Z,93.07
2022-08-05T13:02:02.843Z,94.81
2022-08-05T13:02:17.928Z,93.46
2022-08-05T13:03:17.965Z,94.23
2022-08-05T13:05:14.448Z,93.80
2022-08-05T13:06:11.993Z,94.48
2022-08-05T13:08:08.630Z,95.73
2022-08-05T13:09:06.096Z,94.18
2022-08-05T13:11:00.190Z,95.15
2022-08-05T13:12:03.286Z,96.70
2022-08-05T13:14:05.886Z,97.09
2022-08-05T13:15:05.248Z,97.62
2022-08-05T13:16:48.473Z,96.26
2022-08-05T13:17:48.468Z,97.04
2022-08-05T13:19:52.863Z,96.02
2022-08-05T13:20:42.551Z,94.38
2022-08-05T13:22:36.619Z,92.44
2022-08-05T13:23:36.613Z,92.40
2022-08-05T13:25:59.022Z,91.91
2022-08-05T13:26:30.674Z,91.42
2022-08-05T13:28:24.792Z,92.24
2022-08-05T13:29:37.310Z,90.94
2022-08-05T13:31:19.891Z,90.07
2022-08-05T13:32:21.569Z,90.65
2022-08-05T13:34:22.196Z,90.07
2022-08-05T13:35:13.996Z,90.17
2022-08-05T13:37:09.104Z,90.07
2022-08-05T13:38:09.090Z,90.65
2022-08-05T13:40:15.013Z,90.94
2022-08-05T13:41:03.366Z,90.99
2022-08-05T13:42:57.252Z,89.25
2022-08-05T13:43:57.244Z,90.60
2022-08-05T13:45:51.375Z,89.29
2022-08-05T13:47:02.382Z,88.42
2022-08-05T13:48:57.438Z,87.93
2022-08-05T13:49:46.583Z,88.32
2022-08-05T13:51:41.795Z,88.67
2022-08-05T13:52:41.256Z,88.95
2022-08-05T13:54:34.674Z,90.02
2022-08-05T13:55:40.714Z,90.55
2022-08-05T13:57:51.136Z,89.58
2022-08-05T13:58:30.240Z,89.58
2022-08-05T14:00:27.728Z,88.32
2022-08-05T14:01:27.502Z,89.19
2022-08-05T14:03:17.924Z,89.48
2022-08-05T14:04:17.901Z,88.32
2022-08-05T14:06:26.322Z,88.76
2022-08-05T14:07:25.838Z,87.99
2022-08-05T14:09:08.543Z,88.28
2022-08-05T14:10:05.764Z,88.28
2022-08-05T14:12:04.047Z,90.41
2022-08-05T14:13:00.080Z,90.31
2022-08-05T14:14:54.182Z,89.15
2022-08-05T14:16:08.157Z,89.92
2022-08-05T14:17:48.274Z,88.85
2022-08-05T14:18:48.266Z,89.92
2022-08-05T14:20:42.394Z,90.12
2022-08-05T14:22:10.416Z,90.12
2022-08-05T14:23:36.805Z,89.97
2022-08-05T14:24:36.497Z,89.29
2022-08-05T14:26:37.012Z,88.13
2022-08-05T14:27:30.562Z,88.03
2022-08-05T14:29:25.721Z,88.71
2022-08-05T14:30:26.716Z,88.75
2022-08-05T14:32:27.090Z,87.78
2022-08-05T14:33:22.997Z,87.59
2022-08-05T14:35:14.840Z,86.82
2022-08-05T14:36:14.824Z,86.23
2022-08-05T14:38:27.591Z,86.43
2022-08-05T14:39:10.910Z,86.43
2022-08-05T14:41:05.676Z,87.40
2022-08-05T14:42:21.372Z,88.17
2022-08-05T14:44:09.398Z,86.33
2022-08-05T14:44:58.096Z,86.62
2022-08-05T14:46:52.191Z,86.91
2022-08-05T14:48:03.183Z,86.04
2022-08-05T14:49:59.223Z,85.36
2022-08-05T14:50:46.252Z,85.65
2022-08-05T14:52:52.504Z,85.61
2022-08-05T14:53:44.568Z,85.94
2022-08-05T14:55:39.342Z,86.52
2022-08-05T14:56:35.453Z,86.13
2022-08-05T14:58:29.553Z,86.62
2022-08-05T14:59:35.751Z,86.66
2022-08-05T15:01:48.374Z,84.72
2022-08-05T15:02:23.832Z,83.56
2022-08-05T15:04:20.620Z,84.63
2022-08-05T15:05:17.858Z,85.40
2022-08-05T15:08:08.856Z,85.30
2022-08-05T15:08:16.028Z,85.21
2022-08-05T15:10:09.747Z,85.89
2022-08-05T15:11:07.130Z,85.79
2022-08-05T15:13:03.630Z,85.40
2022-08-05T15:14:01.204Z,83.95
2022-08-05T15:15:56.532Z,84.58
2022-08-05T15:16:55.285Z,85.17
2022-08-05T15:18:49.415Z,86.04
2022-08-05T15:19:49.414Z,85.85
2022-08-05T15:21:43.496Z,86.33
2022-08-05T15:22:44.722Z,86.72
2022-08-05T15:24:39.632Z,86.68
2022-08-05T15:25:51.134Z,85.75
2022-08-05T15:27:32.233Z,86.29
2022-08-05T15:28:31.610Z,86.00
2022-08-05T15:30:26.349Z,86.87
2022-08-05T15:31:35.000Z,86.48
2022-08-05T15:34:04.030Z,87.35
2022-08-05T15:34:32.227Z,86.96
2022-08-05T15:36:17.782Z,86.96
2022-08-05T15:37:19.417Z,87.35
2022-08-05T15:40:58.832Z,87.21
2022-08-05T15:41:01.708Z,87.99
2022-08-05T15:42:28.567Z,88.18
2022-08-05T15:43:11.006Z,88.57
2022-08-05T15:44:56.894Z,88.18
2022-08-05T15:46:00.443Z,87.79
2022-08-05T15:47:50.977Z,88.37
2022-08-05T15:48:54.341Z,87.70
2022-08-05T15:50:45.583Z,86.82
2022-08-05T15:52:13.518Z,85.80
2022-08-05T15:53:50.867Z,86.29
2022-08-05T15:54:40.217Z,85.13
2022-08-05T15:56:34.944Z,83.63
2022-08-05T15:57:34.933Z,84.06
2022-08-05T15:59:29.001Z,84.16
2022-08-05T16:00:50.990Z,83.48
2022-08-05T16:02:25.609Z,82.95
2022-08-05T16:03:23.174Z,82.86
2022-08-05T16:05:17.434Z,82.90
2022-08-05T16:06:19.932Z,82.18
2022-08-05T16:08:11.552Z,82.47
2022-08-05T16:09:11.545Z,82.28
2022-08-05T16:11:05.641Z,82.66
2022-08-05T16:12:05.631Z,82.76
2022-08-05T16:13:59.753Z,82.57
2022-08-05T16:14:59.748Z,82.28
2022-08-05T16:16:54.082Z,82.08
2022-08-05T16:17:57.812Z,82.08
2022-08-05T16:20:04.654Z,81.79
2022-08-05T16:20:48.152Z,82.08
2022-08-05T16:22:42.242Z,82.18
2022-08-05T16:23:53.576Z,81.89
2022-08-05T16:25:36.328Z,83.34
2022-08-05T16:26:36.319Z,82.37
2022-08-05T16:28:30.410Z,82.72
2022-08-05T16:29:31.210Z,83.40
2022-08-05T16:31:24.557Z,83.69
2022-08-05T16:32:29.315Z,82.81
2022-08-05T16:34:18.593Z,83.78
2022-08-05T16:35:18.583Z,84.27
2022-08-05T16:38:03.581Z,83.59
2022-08-05T16:38:23.970Z,83.92
2022-08-05T16:40:13.554Z,83.11
2022-08-05T16:42:12.077Z,83.34
2022-08-05T16:43:01.038Z,82.43
2022-08-05T16:44:01.033Z,81.46
2022-08-05T16:46:05.057Z,81.75
2022-08-05T16:46:55.802Z,82.04
2022-08-05T16:48:49.276Z,82.43
2022-08-05T16:49:49.272Z,81.65
2022-08-05T16:51:51.000Z,81.65
2022-08-05T16:52:46.023Z,81.30
2022-08-05T16:54:37.455Z,81.85
2022-08-05T16:55:46.780Z,82.04
2022-08-05T16:57:59.907Z,81.85
2022-08-05T16:58:31.687Z,81.95
2022-08-05T17:00:34.865Z,82.14
2022-08-05T17:01:27.833Z,82.62
2022-08-05T17:03:21.851Z,82.53
2022-08-05T17:04:21.855Z,82.47
2022-08-05T17:06:17.309Z,81.85
2022-08-05T17:07:17.296Z,82.33
2022-08-05T17:09:11.438Z,82.43
2022-08-05T17:10:11.432Z,82.43
2022-08-05T17:12:05.551Z,82.72
2022-08-05T17:13:05.537Z,82.72
2022-08-05T17:14:59.600Z,83.30
2022-08-05T17:16:19.728Z,83.59
2022-08-05T17:17:54.490Z,83.55
2022-08-05T17:18:53.754Z,83.49
2022-08-05T17:20:47.890Z,84.36
2022-08-05T17:21:51.614Z,84.13
2022-08-05T17:24:04.665Z,84.52
2022-08-05T17:24:56.694Z,84.52
2022-08-05T17:26:36.086Z,85.10
2022-08-05T17:27:36.074Z,85.10
2022-08-05T17:29:33.840Z,85.00
2022-08-05T17:30:30.314Z,85.39
2022-08-05T17:32:24.435Z,85.48
2022-08-05T17:33:24.419Z,85.77
2022-08-05T17:35:20.887Z,85.48
2022-08-05T17:36:33.970Z,85.87
2022-08-05T17:38:12.734Z,85.19
2022-08-05T17:39:23.762Z,84.90
2022-08-05T17:41:06.483Z,84.71
2022-08-05T17:42:18.348Z,84.42
2022-08-05T17:44:00.540Z,84.13
2022-08-05T17:45:00.539Z,84.13
2022-08-05T17:46:54.637Z,83.03
2022-08-05T17:47:56.117Z,82.73
2022-08-05T17:49:52.122Z,83.51
2022-08-05T17:50:49.718Z,83.89
2022-08-05T17:52:52.577Z,83.99
2022-08-05T17:53:43.800Z,83.99
2022-08-05T17:55:39.952Z,83.80
2022-08-05T17:56:38.960Z,83.89
2022-08-05T17:58:33.296Z,83.26
2022-08-05T17:59:33.293Z,82.93
2022-08-05T18:01:27.476Z,82.83
2022-08-05T18:02:27.610Z,82.93
2022-08-05T18:04:27.220Z,82.93
2022-08-05T18:05:21.700Z,82.73
2022-08-05T18:07:15.871Z,82.15
2022-08-05T18:08:15.864Z,83.80
2022-08-05T18:10:10.751Z,83.80
2022-08-05T18:11:09.982Z,83.61
2022-08-05T18:13:07.683Z,83.61
2022-08-05T18:14:06.804Z,83.12
2022-08-05T18:15:04.887Z,83.80
2022-08-05T18:16:04.761Z,83.31
2022-08-05T18:17:04.755Z,83.22
2022-08-05T18:18:11.129Z,82.73
2022-08-05T18:19:04.748Z,83.22
2022-08-05T18:20:04.754Z,83.70
2022-08-05T18:21:04.746Z,84.28
2022-08-05T18:22:09.086Z,84.77
2022-08-05T18:23:09.403Z,83.61
2022-08-05T18:24:04.733Z,83.31
2022-08-05T18:25:04.745Z,82.83
2022-08-05T18:26:04.741Z,82.31
2022-08-05T18:27:04.850Z,82.73
2022-08-05T18:28:05.391Z,82.31
2022-08-05T18:29:04.742Z,81.38
2022-08-05T18:30:04.752Z,80.90
2022-08-05T18:31:04.753Z,81.24
2022-08-05T18:32:04.728Z,81.38
2022-08-05T18:33:04.745Z,79.50
2022-08-05T18:34:06.197Z,80.47